sensor_id;sensor_type;location;lat;lon;timestamp;P1;durP1;ratioP1;P2;durP2;ratioP2
8435;SDS011;4255;48.730;9.156;2023-06-24T00:00:57;6.60;;;5.80;;
8435;SDS011;4255;48.730;9.156;2023-06-24T00:03:22;6.90;;;6.30;;
8435;SDS011;4255;48.730;9.156;2023-06-24T00:05:48;9.23;;;6.73;;
8435;SDS011;4255;48.730;9.156;2023-06-24T00:08:18;6.30;;;5.63;;
8435;SDS011;4255;48.730;9.156;2023-06-24T00:10:47;6.40;;;5.80;;
8435;SDS011;4255;48.730;9.156;2023-06-24T00:13:16;8.00;;;6.40;;
8435;SDS011;4255;48.730;9.156;2023-06-24T00:15:42;7.27;;;6.57;;
8435;SDS011;4255;48.730;9.156;2023-06-24T00:18:09;8.40;;;6.60;;
8435;SDS011;4255;48.730;9.156;2023-06-24T00:20:35;6.97;;;6.27;;
8435;SDS011;4255;48.730;9.156;2023-06-24T00:23:00;7.33;;;6.47;;
8435;SDS011;4255;48.730;9.156;2023-06-24T00:25:26;8.93;;;5.93;;
8435;SDS011;4255;48.730;9.156;2023-06-24T00:27:52;7.23;;;6.50;;
8435;SDS011;4255;48.730;9.156;2023-06-24T00:30:18;7.43;;;6.67;;
8435;SDS011;4255;48.730;9.156;2023-06-24T00:32:43;7.33;;;5.97;;
8435;SDS011;4255;48.730;9.156;2023-06-24T00:35:09;6.93;;;6.20;;
8435;SDS011;4255;48.730;9.156;2023-06-24T00:37:37;7.10;;;6.40;;
8435;SDS011;4255;48.730;9.156;2023-06-24T00:40:03;8.00;;;6.57;;
8435;SDS011;4255;48.730;9.156;2023-06-24T00:42:30;8.10;;;6.53;;
8435;SDS011;4255;48.730;9.156;2023-06-24T00:44:55;7.33;;;6.53;;
8435;SDS011;4255;48.730;9.156;2023-06-24T00:47:21;6.97;;;6.27;;
8435;SDS011;4255;48.730;9.156;2023-06-24T00:49:47;7.80;;;6.20;;
8435;SDS011;4255;48.730;9.156;2023-06-24T00:52:13;9.83;;;6.50;;
8435;SDS011;4255;48.730;9.156;2023-06-24T00:54:40;7.57;;;6.00;;
8435;SDS011;4255;48.730;9.156;2023-06-24T00:57:09;7.20;;;6.50;;
8435;SDS011;4255;48.730;9.156;2023-06-24T00:59:35;7.33;;;6.37;;
8435;SDS011;4255;48.730;9.156;2023-06-24T01:02:02;6.90;;;6.20;;
8435;SDS011;4255;48.730;9.156;2023-06-24T01:04:29;7.90;;;7.10;;
8435;SDS011;4255;48.730;9.156;2023-06-24T01:06:58;10.00;;;6.90;;
8435;SDS011;4255;48.730;9.156;2023-06-24T01:09:25;9.10;;;7.90;;
8435;SDS011;4255;48.730;9.156;2023-06-24T01:11:51;8.00;;;7.07;;
8435;SDS011;4255;48.730;9.156;2023-06-24T01:14:17;8.03;;;7.30;;
8435;SDS011;4255;48.730;9.156;2023-06-24T01:19:43;7.60;;;6.90;;
8435;SDS011;4255;48.730;9.156;2023-06-24T01:31:16;7.60;;;6.90;;
8435;SDS011;4255;48.730;9.156;2023-06-24T01:33:49;7.87;;;7.07;;
8435;SDS011;4255;48.730;9.156;2023-06-24T01:36:24;8.03;;;7.00;;
8435;SDS011;4255;48.730;9.156;2023-06-24T01:38:55;8.00;;;7.20;;
8435;SDS011;4255;48.730;9.156;2023-06-24T01:41:27;9.60;;;7.13;;
8435;SDS011;4255;48.730;9.156;2023-06-24T01:43:57;7.83;;;6.63;;
8435;SDS011;4255;48.730;9.156;2023-06-24T01:46:25;7.27;;;6.57;;
8435;SDS011;4255;48.730;9.156;2023-06-24T01:48:55;8.53;;;7.63;;
8435;SDS011;4255;48.730;9.156;2023-06-24T01:51:28;7.37;;;6.70;;
8435;SDS011;4255;48.730;9.156;2023-06-24T01:53:58;9.90;;;7.90;;
8435;SDS011;4255;48.730;9.156;2023-06-24T01:56:27;10.47;;;7.50;;
8435;SDS011;4255;48.730;9.156;2023-06-24T01:58:54;7.80;;;6.87;;
8435;SDS011;4255;48.730;9.156;2023-06-24T02:01:22;8.77;;;7.90;;
8435;SDS011;4255;48.730;9.156;2023-06-24T02:03:49;10.50;;;8.17;;
8435;SDS011;4255;48.730;9.156;2023-06-24T02:06:17;9.07;;;7.40;;
8435;SDS011;4255;48.730;9.156;2023-06-24T02:08:45;9.07;;;8.17;;
8435;SDS011;4255;48.730;9.156;2023-06-24T02:11:13;9.33;;;8.20;;
8435;SDS011;4255;48.730;9.156;2023-06-24T02:13:40;9.80;;;7.90;;
8435;SDS011;4255;48.730;9.156;2023-06-24T02:16:08;9.80;;;8.43;;
8435;SDS011;4255;48.730;9.156;2023-06-24T02:18:35;10.60;;;8.40;;
8435;SDS011;4255;48.730;9.156;2023-06-24T02:21:03;10.70;;;8.10;;
8435;SDS011;4255;48.730;9.156;2023-06-24T02:23:30;8.73;;;7.83;;
8435;SDS011;4255;48.730;9.156;2023-06-24T02:25:59;9.60;;;8.70;;
8435;SDS011;4255;48.730;9.156;2023-06-24T02:28:26;10.30;;;9.13;;
8435;SDS011;4255;48.730;9.156;2023-06-24T02:30:52;11.10;;;7.93;;
8435;SDS011;4255;48.730;9.156;2023-06-24T02:33:19;10.27;;;8.40;;
8435;SDS011;4255;48.730;9.156;2023-06-24T02:35:45;9.03;;;8.17;;
8435;SDS011;4255;48.730;9.156;2023-06-24T02:38:11;10.17;;;9.13;;
8435;SDS011;4255;48.730;9.156;2023-06-24T02:40:37;10.50;;;8.80;;
8435;SDS011;4255;48.730;9.156;2023-06-24T02:43:03;10.10;;;8.50;;
8435;SDS011;4255;48.730;9.156;2023-06-24T02:45:28;11.00;;;8.60;;
8435;SDS011;4255;48.730;9.156;2023-06-24T02:47:55;11.47;;;9.17;;
8435;SDS011;4255;48.730;9.156;2023-06-24T02:50:22;7.57;;;6.83;;
8435;SDS011;4255;48.730;9.156;2023-06-24T02:52:49;9.60;;;8.60;;
8435;SDS011;4255;48.730;9.156;2023-06-24T02:55:15;9.50;;;7.60;;
8435;SDS011;4255;48.730;9.156;2023-06-24T02:57:41;8.30;;;7.40;;
8435;SDS011;4255;48.730;9.156;2023-06-24T03:00:07;10.80;;;8.60;;
8435;SDS011;4255;48.730;9.156;2023-06-24T03:02:40;8.27;;;7.37;;
8435;SDS011;4255;48.730;9.156;2023-06-24T03:05:07;10.27;;;8.53;;
8435;SDS011;4255;48.730;9.156;2023-06-24T03:07:34;10.90;;;8.30;;
8435;SDS011;4255;48.730;9.156;2023-06-24T03:10:02;9.00;;;8.10;;
8435;SDS011;4255;48.730;9.156;2023-06-24T03:12:30;10.43;;;8.90;;
8435;SDS011;4255;48.730;9.156;2023-06-24T03:14:55;10.67;;;8.87;;
8435;SDS011;4255;48.730;9.156;2023-06-24T03:17:21;9.70;;;8.73;;
8435;SDS011;4255;48.730;9.156;2023-06-24T03:19:46;9.17;;;8.27;;
8435;SDS011;4255;48.730;9.156;2023-06-24T03:22:12;9.70;;;8.70;;
8435;SDS011;4255;48.730;9.156;2023-06-24T03:24:38;8.63;;;7.83;;
8435;SDS011;4255;48.730;9.156;2023-06-24T03:27:03;9.07;;;7.97;;
8435;SDS011;4255;48.730;9.156;2023-06-24T03:29:29;12.23;;;8.30;;
8435;SDS011;4255;48.730;9.156;2023-06-24T03:31:55;8.77;;;7.63;;
8435;SDS011;4255;48.730;9.156;2023-06-24T03:34:20;8.33;;;7.57;;
8435;SDS011;4255;48.730;9.156;2023-06-24T03:36:46;10.47;;;7.60;;
8435;SDS011;4255;48.730;9.156;2023-06-24T03:39:11;8.97;;;8.00;;
8435;SDS011;4255;48.730;9.156;2023-06-24T03:41:37;8.57;;;7.77;;
8435;SDS011;4255;48.730;9.156;2023-06-24T03:44:04;10.00;;;8.53;;
8435;SDS011;4255;48.730;9.156;2023-06-24T03:46:29;10.60;;;8.47;;
8435;SDS011;4255;48.730;9.156;2023-06-24T03:48:57;9.73;;;8.73;;
8435;SDS011;4255;48.730;9.156;2023-06-24T03:51:23;11.00;;;8.87;;
8435;SDS011;4255;48.730;9.156;2023-06-24T03:53:49;9.57;;;8.67;;
8435;SDS011;4255;48.730;9.156;2023-06-24T03:56:16;9.43;;;8.47;;
8435;SDS011;4255;48.730;9.156;2023-06-24T03:58:42;9.73;;;8.73;;
8435;SDS011;4255;48.730;9.156;2023-06-24T04:01:08;10.10;;;8.50;;
8435;SDS011;4255;48.730;9.156;2023-06-24T04:03:34;8.93;;;7.90;;
8435;SDS011;4255;48.730;9.156;2023-06-24T04:06:00;9.10;;;7.63;;
8435;SDS011;4255;48.730;9.156;2023-06-24T04:08:28;7.97;;;7.20;;
8435;SDS011;4255;48.730;9.156;2023-06-24T04:10:55;11.37;;;8.03;;
8435;SDS011;4255;48.730;9.156;2023-06-24T04:13:21;8.17;;;7.10;;
8435;SDS011;4255;48.730;9.156;2023-06-24T04:15:46;7.73;;;7.03;;
8435;SDS011;4255;48.730;9.156;2023-06-24T04:18:12;9.10;;;7.50;;
8435;SDS011;4255;48.730;9.156;2023-06-24T04:20:38;7.80;;;7.10;;
8435;SDS011;4255;48.730;9.156;2023-06-24T04:23:03;10.50;;;7.70;;
8435;SDS011;4255;48.730;9.156;2023-06-24T04:25:30;7.67;;;6.87;;
8435;SDS011;4255;48.730;9.156;2023-06-24T04:27:56;10.07;;;7.80;;
8435;SDS011;4255;48.730;9.156;2023-06-24T04:30:22;8.20;;;7.30;;
8435;SDS011;4255;48.730;9.156;2023-06-24T04:32:48;8.97;;;8.07;;
8435;SDS011;4255;48.730;9.156;2023-06-24T04:35:13;8.23;;;7.23;;
8435;SDS011;4255;48.730;9.156;2023-06-24T04:37:39;8.33;;;6.77;;
8435;SDS011;4255;48.730;9.156;2023-06-24T04:40:05;8.37;;;7.17;;
8435;SDS011;4255;48.730;9.156;2023-06-24T04:42:31;13.13;;;7.30;;
8435;SDS011;4255;48.730;9.156;2023-06-24T04:44:56;7.43;;;6.73;;
8435;SDS011;4255;48.730;9.156;2023-06-24T04:47:22;10.77;;;8.27;;
8435;SDS011;4255;48.730;9.156;2023-06-24T04:49:47;8.83;;;7.93;;
8435;SDS011;4255;48.730;9.156;2023-06-24T04:52:13;8.60;;;7.67;;
8435;SDS011;4255;48.730;9.156;2023-06-24T04:54:40;8.93;;;7.70;;
8435;SDS011;4255;48.730;9.156;2023-06-24T04:57:07;8.27;;;7.47;;
8435;SDS011;4255;48.730;9.156;2023-06-24T04:59:34;8.00;;;7.20;;
8435;SDS011;4255;48.730;9.156;2023-06-24T05:02:01;8.10;;;7.30;;
8435;SDS011;4255;48.730;9.156;2023-06-24T05:04:26;8.60;;;7.57;;
8435;SDS011;4255;48.730;9.156;2023-06-24T05:06:52;10.20;;;6.90;;
8435;SDS011;4255;48.730;9.156;2023-06-24T05:09:18;9.53;;;7.20;;
8435;SDS011;4255;48.730;9.156;2023-06-24T05:11:43;8.30;;;7.50;;
8435;SDS011;4255;48.730;9.156;2023-06-24T05:14:09;8.47;;;7.67;;
8435;SDS011;4255;48.730;9.156;2023-06-24T05:16:35;8.53;;;7.73;;
8435;SDS011;4255;48.730;9.156;2023-06-24T05:19:00;8.17;;;7.37;;
8435;SDS011;4255;48.730;9.156;2023-06-24T05:21:26;8.33;;;7.63;;
8435;SDS011;4255;48.730;9.156;2023-06-24T05:23:52;9.13;;;7.20;;
8435;SDS011;4255;48.730;9.156;2023-06-24T05:26:17;8.33;;;7.53;;
8435;SDS011;4255;48.730;9.156;2023-06-24T05:28:43;10.90;;;8.03;;
8435;SDS011;4255;48.730;9.156;2023-06-24T05:31:08;7.73;;;7.07;;
8435;SDS011;4255;48.730;9.156;2023-06-24T05:33:34;8.30;;;7.50;;
8435;SDS011;4255;48.730;9.156;2023-06-24T05:35:59;7.73;;;6.73;;
8435;SDS011;4255;48.730;9.156;2023-06-24T05:38:25;8.10;;;7.30;;
8435;SDS011;4255;48.730;9.156;2023-06-24T05:40:51;7.97;;;7.17;;
8435;SDS011;4255;48.730;9.156;2023-06-24T05:43:16;7.70;;;6.90;;
8435;SDS011;4255;48.730;9.156;2023-06-24T05:45:42;7.30;;;6.50;;
8435;SDS011;4255;48.730;9.156;2023-06-24T05:48:08;6.73;;;6.20;;
8435;SDS011;4255;48.730;9.156;2023-06-24T05:50:33;7.60;;;6.90;;
8435;SDS011;4255;48.730;9.156;2023-06-24T05:52:59;7.47;;;6.80;;
8435;SDS011;4255;48.730;9.156;2023-06-24T05:55:25;7.10;;;6.50;;
8435;SDS011;4255;48.730;9.156;2023-06-24T05:57:50;6.60;;;6.00;;
8435;SDS011;4255;48.730;9.156;2023-06-24T06:00:17;8.17;;;6.73;;
8435;SDS011;4255;48.730;9.156;2023-06-24T06:02:43;7.70;;;6.90;;
8435;SDS011;4255;48.730;9.156;2023-06-24T06:05:08;7.40;;;6.70;;
8435;SDS011;4255;48.730;9.156;2023-06-24T06:07:34;7.93;;;6.73;;
8435;SDS011;4255;48.730;9.156;2023-06-24T06:10:02;6.90;;;6.30;;
8435;SDS011;4255;48.730;9.156;2023-06-24T06:12:28;6.77;;;6.27;;
8435;SDS011;4255;48.730;9.156;2023-06-24T06:14:54;9.93;;;6.80;;
8435;SDS011;4255;48.730;9.156;2023-06-24T06:17:19;6.80;;;6.20;;
8435;SDS011;4255;48.730;9.156;2023-06-24T06:19:45;7.50;;;6.70;;
8435;SDS011;4255;48.730;9.156;2023-06-24T06:22:11;7.30;;;6.70;;
8435;SDS011;4255;48.730;9.156;2023-06-24T06:24:38;6.53;;;5.93;;
8435;SDS011;4255;48.730;9.156;2023-06-24T06:27:04;6.40;;;5.80;;
8435;SDS011;4255;48.730;9.156;2023-06-24T06:29:33;6.50;;;6.00;;
8435;SDS011;4255;48.730;9.156;2023-06-24T06:31:59;6.83;;;6.23;;
8435;SDS011;4255;48.730;9.156;2023-06-24T06:34:25;6.87;;;6.17;;
8435;SDS011;4255;48.730;9.156;2023-06-24T06:36:50;5.10;;;4.70;;
8435;SDS011;4255;48.730;9.156;2023-06-24T06:39:16;7.17;;;6.00;;
8435;SDS011;4255;48.730;9.156;2023-06-24T06:41:41;7.23;;;6.60;;
8435;SDS011;4255;48.730;9.156;2023-06-24T06:44:07;6.00;;;5.40;;
8435;SDS011;4255;48.730;9.156;2023-06-24T06:46:32;5.60;;;5.03;;
8435;SDS011;4255;48.730;9.156;2023-06-24T06:48:58;5.40;;;4.90;;
8435;SDS011;4255;48.730;9.156;2023-06-24T06:51:24;5.90;;;5.40;;
8435;SDS011;4255;48.730;9.156;2023-06-24T06:53:50;5.60;;;5.10;;
8435;SDS011;4255;48.730;9.156;2023-06-24T06:56:25;7.50;;;4.83;;
8435;SDS011;4255;48.730;9.156;2023-06-24T06:58:51;5.87;;;5.47;;
8435;SDS011;4255;48.730;9.156;2023-06-24T07:01:17;5.60;;;5.17;;
8435;SDS011;4255;48.730;9.156;2023-06-24T07:03:43;6.20;;;4.80;;
8435;SDS011;4255;48.730;9.156;2023-06-24T07:06:09;5.23;;;4.83;;
8435;SDS011;4255;48.730;9.156;2023-06-24T07:08:35;7.10;;;4.10;;
8435;SDS011;4255;48.730;9.156;2023-06-24T07:11:01;4.90;;;4.40;;
8435;SDS011;4255;48.730;9.156;2023-06-24T07:13:27;4.33;;;4.03;;
8435;SDS011;4255;48.730;9.156;2023-06-24T07:15:53;4.97;;;4.47;;
8435;SDS011;4255;48.730;9.156;2023-06-24T07:18:19;4.50;;;4.10;;
8435;SDS011;4255;48.730;9.156;2023-06-24T07:20:44;4.43;;;4.03;;
8435;SDS011;4255;48.730;9.156;2023-06-24T07:23:10;5.57;;;5.10;;
8435;SDS011;4255;48.730;9.156;2023-06-24T07:25:36;5.30;;;4.30;;
8435;SDS011;4255;48.730;9.156;2023-06-24T07:28:02;7.40;;;5.50;;
8435;SDS011;4255;48.730;9.156;2023-06-24T07:30:28;4.43;;;4.10;;
8435;SDS011;4255;48.730;9.156;2023-06-24T07:32:53;5.60;;;5.20;;
8435;SDS011;4255;48.730;9.156;2023-06-24T07:35:19;10.80;;;5.60;;
8435;SDS011;4255;48.730;9.156;2023-06-24T07:37:45;5.50;;;5.00;;
8435;SDS011;4255;48.730;9.156;2023-06-24T07:40:10;4.87;;;4.47;;
8435;SDS011;4255;48.730;9.156;2023-06-24T07:42:36;6.57;;;4.93;;
8435;SDS011;4255;48.730;9.156;2023-06-24T07:45:02;4.40;;;4.10;;
8435;SDS011;4255;48.730;9.156;2023-06-24T07:47:28;4.90;;;4.20;;
8435;SDS011;4255;48.730;9.156;2023-06-24T07:49:53;5.20;;;4.80;;
8435;SDS011;4255;48.730;9.156;2023-06-24T07:52:19;4.93;;;4.53;;
8435;SDS011;4255;48.730;9.156;2023-06-24T07:54:44;5.37;;;4.87;;
8435;SDS011;4255;48.730;9.156;2023-06-24T07:57:10;7.43;;;4.50;;
8435;SDS011;4255;48.730;9.156;2023-06-24T07:59:36;4.80;;;4.30;;
8435;SDS011;4255;48.730;9.156;2023-06-24T08:02:01;5.27;;;4.80;;
8435;SDS011;4255;48.730;9.156;2023-06-24T08:04:27;5.47;;;4.50;;
8435;SDS011;4255;48.730;9.156;2023-06-24T08:06:53;9.13;;;5.80;;
8435;SDS011;4255;48.730;9.156;2023-06-24T08:09:18;9.13;;;5.60;;
8435;SDS011;4255;48.730;9.156;2023-06-24T08:11:44;5.60;;;5.07;;
8435;SDS011;4255;48.730;9.156;2023-06-24T08:14:10;5.43;;;4.93;;
8435;SDS011;4255;48.730;9.156;2023-06-24T08:16:36;5.33;;;4.83;;
8435;SDS011;4255;48.730;9.156;2023-06-24T08:19:02;5.70;;;5.20;;
8435;SDS011;4255;48.730;9.156;2023-06-24T08:21:28;5.40;;;4.90;;
8435;SDS011;4255;48.730;9.156;2023-06-24T08:23:54;5.73;;;4.93;;
8435;SDS011;4255;48.730;9.156;2023-06-24T08:26:20;6.70;;;5.90;;
8435;SDS011;4255;48.730;9.156;2023-06-24T08:28:46;5.17;;;4.77;;
8435;SDS011;4255;48.730;9.156;2023-06-24T08:34:34;5.07;;;4.30;;
8435;SDS011;4255;48.730;9.156;2023-06-24T08:37:00;5.30;;;4.90;;
8435;SDS011;4255;48.730;9.156;2023-06-24T08:39:26;10.70;;;5.00;;
8435;SDS011;4255;48.730;9.156;2023-06-24T08:41:52;5.63;;;5.03;;
8435;SDS011;4255;48.730;9.156;2023-06-24T08:44:18;6.10;;;4.50;;
8435;SDS011;4255;48.730;9.156;2023-06-24T08:46:44;6.30;;;4.47;;
8435;SDS011;4255;48.730;9.156;2023-06-24T08:49:17;4.60;;;4.20;;
8435;SDS011;4255;48.730;9.156;2023-06-24T08:51:54;5.27;;;4.13;;
8435;SDS011;4255;48.730;9.156;2023-06-24T08:54:36;4.67;;;4.27;;
8435;SDS011;4255;48.730;9.156;2023-06-24T08:57:03;5.23;;;4.33;;
8435;SDS011;4255;48.730;9.156;2023-06-24T08:59:33;4.90;;;4.50;;
8435;SDS011;4255;48.730;9.156;2023-06-24T09:02:00;4.87;;;4.47;;
8435;SDS011;4255;48.730;9.156;2023-06-24T09:04:26;4.50;;;4.20;;
8435;SDS011;4255;48.730;9.156;2023-06-24T09:06:51;4.37;;;4.07;;
8435;SDS011;4255;48.730;9.156;2023-06-24T09:09:20;6.07;;;5.00;;
8435;SDS011;4255;48.730;9.156;2023-06-24T09:11:50;4.97;;;4.60;;
8435;SDS011;4255;48.730;9.156;2023-06-24T09:14:18;4.30;;;3.90;;
8435;SDS011;4255;48.730;9.156;2023-06-24T09:16:50;5.70;;;5.10;;
8435;SDS011;4255;48.730;9.156;2023-06-24T09:19:29;5.73;;;4.70;;
8435;SDS011;4255;48.730;9.156;2023-06-24T09:22:15;4.87;;;4.30;;
8435;SDS011;4255;48.730;9.156;2023-06-24T09:24:44;4.70;;;3.70;;
8435;SDS011;4255;48.730;9.156;2023-06-24T09:27:14;5.07;;;4.67;;
8435;SDS011;4255;48.730;9.156;2023-06-24T09:29:41;6.50;;;4.07;;
8435;SDS011;4255;48.730;9.156;2023-06-24T09:32:08;5.73;;;5.23;;
8435;SDS011;4255;48.730;9.156;2023-06-24T09:34:34;4.87;;;4.47;;
8435;SDS011;4255;48.730;9.156;2023-06-24T09:37:00;4.90;;;4.40;;
8435;SDS011;4255;48.730;9.156;2023-06-24T09:39:26;5.87;;;5.00;;
8435;SDS011;4255;48.730;9.156;2023-06-24T09:44:21;6.17;;;4.13;;
8435;SDS011;4255;48.730;9.156;2023-06-24T09:46:47;4.90;;;4.43;;
8435;SDS011;4255;48.730;9.156;2023-06-24T09:49:13;5.13;;;4.57;;
8435;SDS011;4255;48.730;9.156;2023-06-24T09:51:43;4.03;;;3.73;;
8435;SDS011;4255;48.730;9.156;2023-06-24T09:54:13;4.87;;;3.97;;
8435;SDS011;4255;48.730;9.156;2023-06-24T09:56:41;4.80;;;4.43;;
8435;SDS011;4255;48.730;9.156;2023-06-24T09:59:09;5.33;;;4.83;;
8435;SDS011;4255;48.730;9.156;2023-06-24T10:01:38;4.90;;;4.50;;
8435;SDS011;4255;48.730;9.156;2023-06-24T10:04:05;6.67;;;4.37;;
8435;SDS011;4255;48.730;9.156;2023-06-24T10:06:32;7.07;;;4.13;;
8435;SDS011;4255;48.730;9.156;2023-06-24T10:08:58;5.20;;;4.67;;
8435;SDS011;4255;48.730;9.156;2023-06-24T10:11:25;4.50;;;4.13;;
8435;SDS011;4255;48.730;9.156;2023-06-24T10:13:51;5.87;;;4.30;;
8435;SDS011;4255;48.730;9.156;2023-06-24T10:16:18;4.40;;;4.10;;
8435;SDS011;4255;48.730;9.156;2023-06-24T10:18:44;9.57;;;7.10;;
8435;SDS011;4255;48.730;9.156;2023-06-24T10:21:10;6.57;;;4.83;;
8435;SDS011;4255;48.730;9.156;2023-06-24T10:23:40;4.63;;;4.23;;
8435;SDS011;4255;48.730;9.156;2023-06-24T10:26:28;6.07;;;5.53;;
8435;SDS011;4255;48.730;9.156;2023-06-24T10:31:50;4.40;;;4.00;;
8435;SDS011;4255;48.730;9.156;2023-06-24T10:37:31;3.67;;;3.37;;
8435;SDS011;4255;48.730;9.156;2023-06-24T10:39:58;4.60;;;4.30;;
8435;SDS011;4255;48.730;9.156;2023-06-24T10:42:26;4.50;;;4.10;;
8435;SDS011;4255;48.730;9.156;2023-06-24T10:44:52;4.27;;;3.97;;
8435;SDS011;4255;48.730;9.156;2023-06-24T10:47:39;6.23;;;3.87;;
8435;SDS011;4255;48.730;9.156;2023-06-24T10:50:12;4.73;;;4.33;;
8435;SDS011;4255;48.730;9.156;2023-06-24T10:52:43;4.10;;;3.80;;
8435;SDS011;4255;48.730;9.156;2023-06-24T10:55:10;4.17;;;3.87;;
8435;SDS011;4255;48.730;9.156;2023-06-24T10:57:39;4.20;;;3.90;;
8435;SDS011;4255;48.730;9.156;2023-06-24T11:00:05;5.37;;;4.00;;
8435;SDS011;4255;48.730;9.156;2023-06-24T11:02:31;4.40;;;3.43;;
8435;SDS011;4255;48.730;9.156;2023-06-24T11:04:57;4.30;;;3.93;;
8435;SDS011;4255;48.730;9.156;2023-06-24T11:07:24;5.70;;;4.23;;
8435;SDS011;4255;48.730;9.156;2023-06-24T11:09:52;4.30;;;4.00;;
8435;SDS011;4255;48.730;9.156;2023-06-24T11:12:19;5.00;;;3.80;;
8435;SDS011;4255;48.730;9.156;2023-06-24T11:14:49;7.20;;;3.90;;
8435;SDS011;4255;48.730;9.156;2023-06-24T11:17:14;4.53;;;4.13;;
8435;SDS011;4255;48.730;9.156;2023-06-24T11:19:40;5.17;;;4.77;;
8435;SDS011;4255;48.730;9.156;2023-06-24T11:22:06;4.80;;;4.27;;
8435;SDS011;4255;48.730;9.156;2023-06-24T11:24:33;6.20;;;3.70;;
8435;SDS011;4255;48.730;9.156;2023-06-24T11:26:59;4.43;;;4.13;;
8435;SDS011;4255;48.730;9.156;2023-06-24T11:29:28;5.10;;;4.60;;
8435;SDS011;4255;48.730;9.156;2023-06-24T11:31:55;5.60;;;4.97;;
8435;SDS011;4255;48.730;9.156;2023-06-24T11:34:20;5.53;;;5.03;;
8435;SDS011;4255;48.730;9.156;2023-06-24T11:36:47;5.40;;;4.90;;
8435;SDS011;4255;48.730;9.156;2023-06-24T11:39:26;4.30;;;3.90;;
8435;SDS011;4255;48.730;9.156;2023-06-24T11:41:53;5.73;;;4.03;;
8435;SDS011;4255;48.730;9.156;2023-06-24T11:44:25;4.50;;;4.20;;
8435;SDS011;4255;48.730;9.156;2023-06-24T11:46:51;4.17;;;3.77;;
8435;SDS011;4255;48.730;9.156;2023-06-24T11:49:17;4.13;;;3.90;;
8435;SDS011;4255;48.730;9.156;2023-06-24T11:51:47;5.00;;;4.60;;
8435;SDS011;4255;48.730;9.156;2023-06-24T11:54:14;4.43;;;4.03;;
8435;SDS011;4255;48.730;9.156;2023-06-24T11:56:49;4.43;;;4.07;;
8435;SDS011;4255;48.730;9.156;2023-06-24T11:59:20;5.07;;;4.60;;
8435;SDS011;4255;48.730;9.156;2023-06-24T12:01:55;6.80;;;6.20;;
8435;SDS011;4255;48.730;9.156;2023-06-24T12:04:27;5.23;;;4.50;;
8435;SDS011;4255;48.730;9.156;2023-06-24T12:06:53;7.93;;;5.33;;
8435;SDS011;4255;48.730;9.156;2023-06-24T12:09:19;4.27;;;3.87;;
8435;SDS011;4255;48.730;9.156;2023-06-24T12:11:45;4.23;;;3.93;;
8435;SDS011;4255;48.730;9.156;2023-06-24T12:14:10;5.57;;;4.97;;
8435;SDS011;4255;48.730;9.156;2023-06-24T12:16:36;7.80;;;6.13;;
8435;SDS011;4255;48.730;9.156;2023-06-24T12:19:02;3.90;;;3.60;;
8435;SDS011;4255;48.730;9.156;2023-06-24T12:21:28;4.23;;;3.93;;
8435;SDS011;4255;48.730;9.156;2023-06-24T12:23:54;4.23;;;3.90;;
8435;SDS011;4255;48.730;9.156;2023-06-24T12:26:19;7.10;;;4.50;;
8435;SDS011;4255;48.730;9.156;2023-06-24T12:28:45;4.80;;;4.40;;
8435;SDS011;4255;48.730;9.156;2023-06-24T12:31:11;3.87;;;3.57;;
8435;SDS011;4255;48.730;9.156;2023-06-24T12:33:36;3.30;;;3.10;;
8435;SDS011;4255;48.730;9.156;2023-06-24T12:36:02;4.10;;;3.80;;
8435;SDS011;4255;48.730;9.156;2023-06-24T12:38:28;5.20;;;4.80;;
8435;SDS011;4255;48.730;9.156;2023-06-24T12:40:53;4.47;;;3.70;;
8435;SDS011;4255;48.730;9.156;2023-06-24T12:43:19;4.20;;;3.90;;
8435;SDS011;4255;48.730;9.156;2023-06-24T12:45:44;4.10;;;3.80;;
8435;SDS011;4255;48.730;9.156;2023-06-24T12:48:10;4.40;;;4.10;;
8435;SDS011;4255;48.730;9.156;2023-06-24T12:50:37;3.90;;;3.60;;
8435;SDS011;4255;48.730;9.156;2023-06-24T12:53:03;4.00;;;3.60;;
8435;SDS011;4255;48.730;9.156;2023-06-24T12:55:29;4.30;;;4.00;;
8435;SDS011;4255;48.730;9.156;2023-06-24T12:57:55;8.80;;;3.53;;
8435;SDS011;4255;48.730;9.156;2023-06-24T13:00:21;4.10;;;3.80;;
8435;SDS011;4255;48.730;9.156;2023-06-24T13:02:48;3.63;;;3.40;;
8435;SDS011;4255;48.730;9.156;2023-06-24T13:05:14;4.00;;;3.70;;
8435;SDS011;4255;48.730;9.156;2023-06-24T13:07:40;4.13;;;3.83;;
8435;SDS011;4255;48.730;9.156;2023-06-24T13:10:06;3.83;;;3.60;;
8435;SDS011;4255;48.730;9.156;2023-06-24T13:12:32;4.77;;;4.47;;
8435;SDS011;4255;48.730;9.156;2023-06-24T13:14:58;5.67;;;4.17;;
8435;SDS011;4255;48.730;9.156;2023-06-24T13:17:24;4.80;;;3.87;;
8435;SDS011;4255;48.730;9.156;2023-06-24T13:19:50;4.40;;;3.40;;
8435;SDS011;4255;48.730;9.156;2023-06-24T13:22:16;4.00;;;3.60;;
8435;SDS011;4255;48.730;9.156;2023-06-24T13:24:41;4.17;;;3.83;;
8435;SDS011;4255;48.730;9.156;2023-06-24T13:27:07;4.60;;;4.30;;
8435;SDS011;4255;48.730;9.156;2023-06-24T13:29:33;4.17;;;3.73;;
8435;SDS011;4255;48.730;9.156;2023-06-24T13:31:58;4.03;;;3.73;;
8435;SDS011;4255;48.730;9.156;2023-06-24T13:34:24;5.07;;;4.07;;
8435;SDS011;4255;48.730;9.156;2023-06-24T13:36:50;4.30;;;4.00;;
8435;SDS011;4255;48.730;9.156;2023-06-24T13:39:15;4.07;;;3.70;;
8435;SDS011;4255;48.730;9.156;2023-06-24T13:41:44;4.03;;;3.63;;
8435;SDS011;4255;48.730;9.156;2023-06-24T13:44:10;4.00;;;3.70;;
8435;SDS011;4255;48.730;9.156;2023-06-24T13:46:35;3.67;;;3.40;;
8435;SDS011;4255;48.730;9.156;2023-06-24T13:49:01;5.03;;;4.53;;
8435;SDS011;4255;48.730;9.156;2023-06-24T13:51:27;9.47;;;4.40;;
8435;SDS011;4255;48.730;9.156;2023-06-24T13:53:54;4.60;;;4.30;;
8435;SDS011;4255;48.730;9.156;2023-06-24T13:56:20;4.30;;;4.00;;
8435;SDS011;4255;48.730;9.156;2023-06-24T13:58:49;6.57;;;4.57;;
8435;SDS011;4255;48.730;9.156;2023-06-24T14:01:15;4.40;;;3.83;;
8435;SDS011;4255;48.730;9.156;2023-06-24T14:03:41;5.37;;;4.80;;
8435;SDS011;4255;48.730;9.156;2023-06-24T14:06:07;4.83;;;4.37;;
8435;SDS011;4255;48.730;9.156;2023-06-24T14:08:34;5.13;;;4.27;;
8435;SDS011;4255;48.730;9.156;2023-06-24T14:11:00;4.80;;;4.40;;
8435;SDS011;4255;48.730;9.156;2023-06-24T14:13:26;8.00;;;6.77;;
8435;SDS011;4255;48.730;9.156;2023-06-24T14:15:53;4.93;;;4.57;;
8435;SDS011;4255;48.730;9.156;2023-06-24T14:18:19;3.83;;;3.53;;
8435;SDS011;4255;48.730;9.156;2023-06-24T14:20:45;4.87;;;3.70;;
8435;SDS011;4255;48.730;9.156;2023-06-24T14:23:11;4.90;;;4.47;;
8435;SDS011;4255;48.730;9.156;2023-06-24T14:25:36;6.70;;;3.73;;
8435;SDS011;4255;48.730;9.156;2023-06-24T14:28:03;4.97;;;4.23;;
8435;SDS011;4255;48.730;9.156;2023-06-24T14:30:29;4.00;;;3.70;;
8435;SDS011;4255;48.730;9.156;2023-06-24T14:32:55;5.00;;;4.60;;
8435;SDS011;4255;48.730;9.156;2023-06-24T14:35:21;4.90;;;4.50;;
8435;SDS011;4255;48.730;9.156;2023-06-24T14:37:46;3.97;;;3.67;;
8435;SDS011;4255;48.730;9.156;2023-06-24T14:40:12;4.27;;;3.87;;
8435;SDS011;4255;48.730;9.156;2023-06-24T14:42:38;4.40;;;4.10;;
8435;SDS011;4255;48.730;9.156;2023-06-24T14:45:03;4.07;;;3.67;;
8435;SDS011;4255;48.730;9.156;2023-06-24T14:47:29;10.40;;;7.67;;
8435;SDS011;4255;48.730;9.156;2023-06-24T14:49:55;4.40;;;4.10;;
8435;SDS011;4255;48.730;9.156;2023-06-24T14:52:20;4.70;;;4.30;;
8435;SDS011;4255;48.730;9.156;2023-06-24T14:54:46;4.20;;;3.90;;
8435;SDS011;4255;48.730;9.156;2023-06-24T14:57:12;4.50;;;4.10;;
8435;SDS011;4255;48.730;9.156;2023-06-24T14:59:38;4.50;;;4.00;;
8435;SDS011;4255;48.730;9.156;2023-06-24T15:02:03;4.77;;;4.30;;
8435;SDS011;4255;48.730;9.156;2023-06-24T15:04:30;5.10;;;4.57;;
8435;SDS011;4255;48.730;9.156;2023-06-24T15:06:55;4.40;;;4.00;;
8435;SDS011;4255;48.730;9.156;2023-06-24T15:09:21;4.30;;;3.93;;
8435;SDS011;4255;48.730;9.156;2023-06-24T15:11:48;4.07;;;3.77;;
8435;SDS011;4255;48.730;9.156;2023-06-24T15:14:13;4.37;;;4.07;;
8435;SDS011;4255;48.730;9.156;2023-06-24T15:16:39;4.23;;;3.93;;
8435;SDS011;4255;48.730;9.156;2023-06-24T15:19:04;5.20;;;3.70;;
8435;SDS011;4255;48.730;9.156;2023-06-24T15:21:30;4.53;;;4.13;;
8435;SDS011;4255;48.730;9.156;2023-06-24T15:23:56;4.83;;;4.43;;
8435;SDS011;4255;48.730;9.156;2023-06-24T15:26:21;3.97;;;3.67;;
8435;SDS011;4255;48.730;9.156;2023-06-24T15:28:47;3.50;;;3.30;;
8435;SDS011;4255;48.730;9.156;2023-06-24T15:31:13;4.40;;;4.07;;
8435;SDS011;4255;48.730;9.156;2023-06-24T15:33:39;4.90;;;4.50;;
8435;SDS011;4255;48.730;9.156;2023-06-24T15:36:04;4.40;;;4.00;;